Time,TemperatureF,DewpointF,PressureIn,WindDirection,WindDirectionDegrees,WindSpeedMPH,WindSpeedGustMPH,Humidity,HourlyPrecipIn,Conditions,Clouds,dailyrainin,SoftwareType,DateUTC
2013-07-12 00:03:00,72.8,40.0,29.72,NW,312,10.0,13.0,30,0.00,,,0.00,weatherlink.com 1.10,2013-07-12 06:03:00,
2013-07-12 00:18:00,72.7,40.0,29.73,NW,304,3.0,8.0,31,0.00,,,0.00,weatherlink.com 1.10,2013-07-12 06:18:00,
2013-07-12 00:33:00,72.3,40.0,29.75,South,171,2.0,8.0,31,0.00,,,0.00,weatherlink.com 1.10,2013-07-12 06:33:00,
2013-07-12 00:48:00,71.6,42.0,29.77,NE,37,8.0,10.0,34,0.00,,,0.00,weatherlink.com 1.10,2013-07-12 06:48:00,
2013-07-12 01:03:00,71.1,42.0,29.78,ESE,110,3.0,5.0,35,0.00,,,0.00,weatherlink.com 1.10,2013-07-12 07:03:00,
2013-07-12 01:18:00,70.1,44.0,29.78,NE,47,6.0,10.0,39,0.00,,,0.00,weatherlink.com 1.10,2013-07-12 07:18:00,
2013-07-12 01:33:00,69.1,45.0,29.78,ENE,58,4.0,17.0,42,0.00,,,0.00,weatherlink.com 1.10,2013-07-12 07:33:00,
2013-07-12 01:48:00,67.8,47.0,29.81,NNW,341,2.0,10.0,48,0.00,,,0.00,weatherlink.com 1.10,2013-07-12 07:48:00,
2013-07-12 02:04:00,65.8,49.0,29.80,WSW,256,4.0,6.0,54,0.00,,,0.00,weatherlink.com 1.10,2013-07-12 08:04:00,
2013-07-12 02:19:00,65.5,49.0,29.81,SSW,212,3.0,6.0,55,0.00,,,0.00,weatherlink.com 1.10,2013-07-12 08:19:00,
2013-07-12 02:34:00,65.5,50.0,29.80,SSW,212,0.0,3.0,57,0.00,,,0.00,weatherlink.com 1.10,2013-07-12 08:34:00,
2013-07-12 02:49:00,64.3,50.0,29.79,SSW,212,0.0,0.0,61,0.00,,,0.00,weatherlink.com 1.10,2013-07-12 08:49:00,
2013-07-12 03:04:00,63.2,49.0,29.79,SSW,212,0.0,3.0,60,0.00,,,0.00,weatherlink.com 1.10,2013-07-12 09:04:00,
2013-07-12 03:19:00,62.9,49.0,29.79,SSW,212,0.0,2.0,60,0.00,,,0.00,weatherlink.com 1.10,2013-07-12 09:19:00,
2013-07-12 03:34:00,62.4,50.0,29.79,SSW,212,0.0,5.0,64,0.00,,,0.00,weatherlink.com 1.10,2013-07-12 09:34:00,
2013-07-12 03:49:00,62.7,49.0,29.78,SSW,213,0.0,5.0,61,0.00,,,0.00,weatherlink.com 1.10,2013-07-12 09:49:00,
2013-07-12 04:04:00,63.4,48.0,29.79,SSW,213,1.0,4.0,57,0.00,,,0.00,weatherlink.com 1.10,2013-07-12 10:04:00,
2013-07-12 04:19:00,64.5,48.0,29.79,SSW,213,1.0,3.0,55,0.00,,,0.00,weatherlink.com 1.10,2013-07-12 10:19:00,
2013-07-12 04:34:00,64.0,48.0,29.79,SSW,213,1.0,3.0,57,0.00,,,0.00,weatherlink.com 1.10,2013-07-12 10:34:00,
2013-07-12 04:49:00,63.9,47.0,29.79,SE,125,0.0,1.0,54,0.00,,,0.00,weatherlink.com 1.10,2013-07-12 10:49:00,
2013-07-12 05:04:00,64.0,48.0,29.79,SE,128,0.0,3.0,56,0.00,,,0.00,weatherlink.com 1.10,2013-07-12 11:04:00,
2013-07-12 05:19:00,63.5,49.0,29.79,SE,128,2.0,4.0,59,0.00,,,0.00,weatherlink.com 1.10,2013-07-12 11:19:00,
2013-07-12 05:34:00,63.5,48.0,29.79,SE,128,1.0,2.0,58,0.00,,,0.00,weatherlink.com 1.10,2013-07-12 11:34:00,
2013-07-12 05:49:00,63.9,48.0,29.80,North,354,1.0,3.0,56,0.00,,,0.00,weatherlink.com 1.10,2013-07-12 11:49:00,
2013-07-12 06:04:00,63.2,47.0,29.80,North,354,0.0,2.0,56,0.00,,,0.00,weatherlink.com 1.10,2013-07-12 12:04:00,
2013-07-12 06:19:00,62.9,48.0,29.80,ENE,57,3.0,6.0,58,0.00,,,0.00,weatherlink.com 1.10,2013-07-12 12:19:00,
2013-07-12 06:34:00,63.2,51.0,29.80,North,10,2.0,5.0,64,0.00,,,0.00,weatherlink.com 1.10,2013-07-12 12:34:00,
2013-07-12 06:49:00,62.9,52.0,29.81,West,275,0.0,4.0,67,0.00,,,0.00,weatherlink.com 1.10,2013-07-12 12:49:00,
2013-07-12 07:04:00,62.9,52.0,29.81,West,275,1.0,1.0,67,0.00,,,0.00,weatherlink.com 1.10,2013-07-12 13:04:00,
2013-07-12 07:19:00,63.1,52.0,29.81,West,275,2.0,4.0,67,0.00,,,0.00,weatherlink.com 1.10,2013-07-12 13:19:00,
2013-07-12 07:34:00,63.1,52.0,29.82,West,275,2.0,4.0,67,0.00,,,0.00,weatherlink.com 1.10,2013-07-12 13:34:00,
2013-07-12 07:49:00,63.2,52.0,29.82,West,275,2.0,3.0,67,0.00,,,0.00,weatherlink.com 1.10,2013-07-12 13:49:00,
2013-07-12 08:04:00,64.0,52.0,29.82,East,93,1.0,5.0,65,0.00,,,0.00,weatherlink.com 1.10,2013-07-12 14:04:00,
2013-07-12 08:19:00,66.1,53.0,29.82,ENE,61,0.0,1.0,62,0.00,,,0.00,weatherlink.com 1.10,2013-07-12 14:19:00,
2013-07-12 08:34:00,69.4,51.0,29.82,East,95,6.0,7.0,52,0.00,,,0.00,weatherlink.com 1.10,2013-07-12 14:34:00,
2013-07-12 08:49:00,68.8,51.0,29.82,East,95,5.0,6.0,54,0.00,,,0.00,weatherlink.com 1.10,2013-07-12 14:49:00,
2013-07-12 09:04:00,68.9,48.0,29.83,ESE,118,2.0,6.0,48,0.00,,,0.00,weatherlink.com 1.10,2013-07-12 15:04:00,
2013-07-12 09:19:00,69.3,50.0,29.83,ENE,61,1.0,6.0,50,0.00,,,0.00,weatherlink.com 1.10,2013-07-12 15:19:00,
2013-07-12 09:34:00,69.6,48.0,29.84,ESE,113,2.0,3.0,47,0.00,,,0.00,weatherlink.com 1.10,2013-07-12 15:34:00,
2013-07-12 09:49:00,71.1,50.0,29.84,ESE,110,3.0,3.0,48,0.00,,,0.00,weatherlink.com 1.10,2013-07-12 15:49:00,
2013-07-12 10:04:00,69.8,50.0,29.84,East,85,3.0,9.0,49,0.00,,,0.00,weatherlink.com 1.10,2013-07-12 16:04:00,
2013-07-12 10:19:00,69.4,48.0,29.84,East,84,3.0,5.0,46,0.00,,,0.00,weatherlink.com 1.10,2013-07-12 16:19:00,
2013-07-12 10:34:00,69.1,48.0,29.84,East,79,3.0,4.0,48,0.00,,,0.00,weatherlink.com 1.10,2013-07-12 16:34:00,
2013-07-12 10:49:00,69.1,48.0,29.84,East,91,3.0,3.0,48,0.00,,,0.00,weatherlink.com 1.10,2013-07-12 16:49:00,
2013-07-12 11:04:00,69.3,48.0,29.84,East,92,2.0,5.0,46,0.00,,,0.00,weatherlink.com 1.10,2013-07-12 17:04:00,
2013-07-12 11:19:00,69.6,49.0,29.85,East,89,0.0,7.0,49,0.00,,,0.00,weatherlink.com 1.10,2013-07-12 17:19:00,
2013-07-12 11:49:00,71.1,47.0,29.84,ESE,106,0.0,7.0,43,0.00,,,0.00,weatherlink.com 1.10,2013-07-12 17:49:00,
2013-07-12 12:04:00,71.6,48.0,29.84,East,100,6.0,9.0,43,0.00,,,0.00,weatherlink.com 1.10,2013-07-12 18:04:00,
2013-07-12 12:34:00,73.0,47.0,29.83,East,91,8.0,11.0,40,0.00,,,0.00,weatherlink.com 1.10,2013-07-12 18:34:00,
2013-07-12 12:49:00,73.2,48.0,29.83,East,83,6.0,17.0,41,0.00,,,0.00,weatherlink.com 1.10,2013-07-12 18:49:00,
2013-07-12 13:04:00,73.3,49.0,29.83,East,100,9.0,14.0,42,0.00,,,0.00,weatherlink.com 1.10,2013-07-12 19:04:00,
2013-07-12 13:19:00,74.4,49.0,29.83,East,100,7.0,16.0,41,0.00,,,0.00,weatherlink.com 1.10,2013-07-12 19:19:00,
2013-07-12 13:34:00,75.6,50.0,29.83,East,89,14.0,21.0,40,0.00,,,0.00,weatherlink.com 1.10,2013-07-12 19:34:00,
2013-07-12 13:49:00,77.0,45.0,29.82,East,101,8.0,19.0,32,0.00,,,0.00,weatherlink.com 1.10,2013-07-12 19:49:00,
2013-07-12 14:04:00,77.6,44.0,29.82,East,92,8.0,15.0,30,0.00,,,0.00,weatherlink.com 1.10,2013-07-12 20:04:00,
2013-07-12 14:19:00,77.9,43.0,29.81,ESE,105,12.0,18.0,29,0.00,,,0.00,weatherlink.com 1.10,2013-07-12 20:19:00,
2013-07-12 14:34:00,78.1,44.0,29.82,ENE,67,9.0,17.0,30,0.00,,,0.00,weatherlink.com 1.10,2013-07-12 20:34:00,
2013-07-12 14:49:00,78.5,45.0,29.81,NE,53,8.0,15.0,31,0.00,,,0.00,weatherlink.com 1.10,2013-07-12 20:49:00,
2013-07-12 15:04:00,79.0,42.0,29.82,SE,144,3.0,15.0,27,0.00,,,0.00,weatherlink.com 1.10,2013-07-12 21:04:00,
2013-07-12 15:19:00,78.1,44.0,29.82,East,79,6.0,7.0,30,0.00,,,0.00,weatherlink.com 1.10,2013-07-12 21:19:00,
2013-07-12 15:34:00,77.9,42.0,29.82,East,91,1.0,9.0,28,0.00,,,0.00,weatherlink.com 1.10,2013-07-12 21:34:00,
2013-07-12 15:49:00,77.6,42.0,29.82,North,359,5.0,9.0,28,0.00,,,0.00,weatherlink.com 1.10,2013-07-12 21:49:00,
2013-07-12 16:04:00,77.6,41.0,29.83,NE,37,5.0,10.0,27,0.00,,,0.00,weatherlink.com 1.10,2013-07-12 22:04:00,
2013-07-12 16:19:00,77.6,42.0,29.82,NNW,332,2.0,11.0,28,0.00,,,0.00,weatherlink.com 1.10,2013-07-12 22:19:00,
2013-07-12 16:34:00,79.0,41.0,29.81,NE,52,3.0,10.0,26,0.00,,,0.00,weatherlink.com 1.10,2013-07-12 22:34:00,
2013-07-12 17:04:00,79.0,33.0,29.81,East,97,6.0,11.0,19,0.00,,,0.00,weatherlink.com 1.10,2013-07-12 23:04:00,
2013-07-12 17:19:00,79.0,36.0,29.81,East,89,7.0,11.0,21,0.00,,,0.00,weatherlink.com 1.10,2013-07-12 23:19:00,
2013-07-12 17:34:00,80.5,36.0,29.81,SSW,208,6.0,7.0,20,0.00,,,0.00,weatherlink.com 1.10,2013-07-12 23:34:00,
2013-07-12 17:49:00,79.9,39.0,29.81,East,97,3.0,9.0,23,0.00,,,0.00,weatherlink.com 1.10,2013-07-12 23:49:00,
2013-07-12 18:19:00,79.6,39.0,29.81,SSW,206,6.0,13.0,23,0.00,,,0.00,weatherlink.com 1.10,2013-07-13 00:19:00,
2013-07-12 18:34:00,80.5,35.0,29.80,SSW,203,1.0,6.0,19,0.00,,,0.00,weatherlink.com 1.10,2013-07-13 00:34:00,
2013-07-12 18:50:00,79.9,33.0,29.81,SW,231,6.0,13.0,18,0.00,,,0.00,weatherlink.com 1.10,2013-07-13 00:50:00,
2013-07-12 19:20:00,79.9,38.0,29.82,SE,136,1.0,6.0,22,0.00,,,0.00,weatherlink.com 1.10,2013-07-13 01:20:00,
2013-07-12 19:50:00,80.3,33.0,29.82,East,93,1.0,3.0,18,0.00,,,0.00,weatherlink.com 1.10,2013-07-13 01:50:00,
2013-07-12 20:05:00,77.9,41.0,29.82,ESE,116,0.0,2.0,27,0.00,,,0.00,weatherlink.com 1.10,2013-07-13 02:05:00,
2013-07-12 20:20:00,72.0,41.0,29.82,SW,226,0.0,4.0,33,0.00,,,0.00,weatherlink.com 1.10,2013-07-13 02:20:00,
2013-07-12 20:35:00,69.8,40.0,29.83,WSW,244,1.0,4.0,34,0.00,,,0.00,weatherlink.com 1.10,2013-07-13 02:35:00,
2013-07-12 20:50:00,67.1,35.0,29.83,WSW,251,1.0,5.0,31,0.00,,,0.00,weatherlink.com 1.10,2013-07-13 02:50:00,
2013-07-12 21:05:00,63.7,41.0,29.84,WSW,237,0.0,5.0,43,0.00,,,0.00,weatherlink.com 1.10,2013-07-13 03:05:00,
2013-07-12 21:35:00,71.3,34.0,29.86,South,191,1.0,10.0,25,0.00,,,0.00,weatherlink.com 1.10,2013-07-13 03:35:00,
2013-07-12 21:50:00,67.9,37.0,29.86,WSW,251,1.0,4.0,32,0.00,,,0.00,weatherlink.com 1.10,2013-07-13 03:50:00,
2013-07-12 22:05:00,70.1,35.0,29.87,WSW,243,7.0,8.0,28,0.00,,,0.00,weatherlink.com 1.10,2013-07-13 04:05:00,
2013-07-12 22:20:00,71.8,35.0,29.87,SW,218,15.0,19.0,26,0.00,,,0.00,weatherlink.com 1.10,2013-07-13 04:20:00,
2013-07-12 22:35:00,72.0,35.0,29.88,SSW,207,12.0,20.0,26,0.00,,,0.00,weatherlink.com 1.10,2013-07-13 04:35:00,
2013-07-12 22:50:00,72.0,35.0,29.87,SSW,212,19.0,22.0,26,0.00,,,0.00,weatherlink.com 1.10,2013-07-13 04:50:00,
2013-07-12 23:05:00,71.6,36.0,29.88,SW,235,20.0,23.0,27,0.00,,,0.00,weatherlink.com 1.10,2013-07-13 05:05:00,
2013-07-12 23:20:00,71.3,35.0,29.89,WNW,285,8.0,23.0,26,0.00,,,0.00,weatherlink.com 1.10,2013-07-13 05:20:00,
2013-07-12 23:35:00,72.0,35.0,29.89,South,173,3.0,6.0,26,0.00,,,0.00,weatherlink.com 1.10,2013-07-13 05:35:00,
2013-07-12 23:50:00,70.8,35.0,29.90,WSW,249,3.0,10.0,27,0.00,,,0.00,weatherlink.com 1.10,2013-07-13 05:50:00,